createdAt,value
2023-01-29T00:00:23.917Z,101649.19
2023-01-29T00:02:52.318Z,101642.03
2023-01-29T00:05:27.795Z,101642.16
2023-01-29T00:07:56.220Z,101647.75
2023-01-29T00:10:24.105Z,101636.84
2023-01-29T00:12:52.047Z,101634.31
2023-01-29T00:15:21.008Z,101624.41
2023-01-29T00:17:48.959Z,101624.41
2023-01-29T00:20:17.550Z,101627.13
2023-01-29T00:22:45.874Z,101621.84
2023-01-29T00:25:13.862Z,101625.56
2023-01-29T00:27:41.682Z,101623.88
2023-01-29T00:30:13.334Z,101631.31
2023-01-29T00:32:41.246Z,101629.75
2023-01-29T00:35:09.139Z,101624.63
2023-01-29T00:37:36.976Z,101624.78
2023-01-29T00:40:05.041Z,101628.50
2023-01-29T00:42:50.448Z,101624.09
2023-01-29T00:45:18.303Z,101630.84
2023-01-29T00:47:46.196Z,101620.97
2023-01-29T00:50:14.400Z,101623.69
2023-01-29T00:52:42.479Z,101614.81
2023-01-29T00:55:10.331Z,101614.81
2023-01-29T00:57:38.248Z,101608.50
2023-01-29T01:00:06.301Z,101600.34
2023-01-29T01:02:51.821Z,101596.78
2023-01-29T01:05:19.944Z,101601.19
2023-01-29T01:07:47.838Z,101605.63
2023-01-29T01:10:24.426Z,101603.78
2023-01-29T01:12:52.318Z,101613.78
2023-01-29T01:15:20.333Z,101599.31
2023-01-29T01:17:48.936Z,101603.91
2023-01-29T01:20:17.161Z,101603.06
2023-01-29T01:22:45.289Z,101612.09
2023-01-29T01:25:13.192Z,101601.34
2023-01-29T01:27:41.484Z,101595.03
2023-01-29T01:30:09.479Z,101584.31
2023-01-29T01:32:37.354Z,101577.97
2023-01-29T01:35:05.272Z,101576.16
2023-01-29T01:37:33.153Z,101571.69
2023-01-29T01:40:01.099Z,101566.41
2023-01-29T01:42:30.178Z,101566.56
2023-01-29T01:44:58.787Z,101562.28
2023-01-29T01:47:26.725Z,101561.56
2023-01-29T01:49:54.668Z,101564.47
2023-01-29T01:52:22.583Z,101565.44
2023-01-29T01:54:50.437Z,101571.75
2023-01-29T01:57:18.312Z,101579.06
2023-01-29T01:59:46.166Z,101581.97
2023-01-29T02:02:31.205Z,101585.66
2023-01-29T02:05:16.561Z,101583.25
2023-01-29T02:08:01.873Z,101580.84
2023-01-29T02:10:29.776Z,101588.84
2023-01-29T02:12:57.657Z,101578.13
2023-01-29T02:15:25.632Z,101576.38
2023-01-29T02:17:53.573Z,101572.81
2023-01-29T02:20:24.390Z,101581.84
2023-01-29T02:22:55.083Z,101582.84
2023-01-29T02:25:23.034Z,101577.41
2023-01-29T02:27:50.986Z,101584.72
2023-01-29T02:30:19.229Z,101577.59
2023-01-29T02:32:54.851Z,101575.00
2023-01-29T02:35:29.896Z,101570.56
2023-01-29T02:37:57.830Z,101566.84
2023-01-29T02:40:25.738Z,101582.16
2023-01-29T02:42:53.667Z,101585.19
2023-01-29T02:45:21.568Z,101594.38
2023-01-29T02:47:49.484Z,101588.06
2023-01-29T02:50:17.716Z,101589.06
2023-01-29T02:52:49.768Z,101590.94
2023-01-29T02:55:17.665Z,101587.50
2023-01-29T02:57:45.503Z,101588.66
2023-01-29T03:00:13.506Z,101584.06
2023-01-29T03:02:41.581Z,101578.63
2023-01-29T03:05:10.385Z,101583.06
2023-01-29T03:07:45.052Z,101576.91
2023-01-29T03:10:13.312Z,101569.47
2023-01-29T03:12:41.296Z,101559.56
2023-01-29T03:15:16.765Z,101564.03
2023-01-29T03:17:44.678Z,101566.75
2023-01-29T03:20:13.645Z,101571.16
2023-01-29T03:22:41.594Z,101567.44
2023-01-29T03:25:27.008Z,101565.72
2023-01-29T03:28:12.536Z,101558.56
2023-01-29T03:30:58.249Z,101559.56
2023-01-29T03:33:26.152Z,101561.28
2023-01-29T03:35:54.045Z,101569.28
2023-01-29T03:38:21.921Z,101569.47
2023-01-29T03:40:49.803Z,101564.88
2023-01-29T03:43:17.736Z,101571.16
2023-01-29T03:45:45.661Z,101569.47
2023-01-29T03:48:13.523Z,101566.88
2023-01-29T03:50:41.479Z,101562.47
2023-01-29T03:53:09.745Z,101549.00
2023-01-29T03:55:37.610Z,101553.56
2023-01-29T03:58:05.774Z,101555.44
2023-01-29T04:00:33.623Z,101566.34
2023-01-29T04:03:01.547Z,101557.31
2023-01-29T04:05:29.387Z,101556.44
2023-01-29T04:07:57.307Z,101555.59
2023-01-29T04:10:25.214Z,101559.34
2023-01-29T04:12:53.060Z,101562.06
2023-01-29T04:15:20.927Z,101555.72
2023-01-29T04:17:48.894Z,101546.69
2023-01-29T04:20:17.010Z,101540.28
2023-01-29T04:22:45.061Z,101536.81
2023-01-29T04:25:16.165Z,101541.13
2023-01-29T04:27:44.076Z,101535.78
2023-01-29T04:30:11.928Z,101534.09
2023-01-29T04:32:40.020Z,101530.53
2023-01-29T04:35:07.937Z,101528.66
2023-01-29T04:37:35.813Z,101532.53
2023-01-29T04:40:03.680Z,101535.25
2023-01-29T04:42:31.684Z,101522.66
2023-01-29T04:44:59.561Z,101523.66
2023-01-29T04:47:27.574Z,101513.78
2023-01-29T04:49:55.490Z,101503.94
2023-01-29T04:52:23.373Z,101495.78
2023-01-29T04:54:51.321Z,101495.91
2023-01-29T04:57:19.178Z,101493.03
2023-01-29T04:59:47.055Z,101483.00
2023-01-29T05:02:14.984Z,101472.13
2023-01-29T05:04:42.800Z,101479.44
2023-01-29T05:07:10.644Z,101477.56
2023-01-29T05:09:38.511Z,101476.72
2023-01-29T05:12:06.401Z,101469.22
2023-01-29T05:14:34.249Z,101471.28
2023-01-29T05:17:02.144Z,101471.72
2023-01-29T05:19:29.976Z,101466.75
2023-01-29T05:21:57.815Z,101474.19
2023-01-29T05:24:25.718Z,101461.75
2023-01-29T05:27:11.118Z,101470.06
2023-01-29T05:29:39.096Z,101468.34
2023-01-29T05:32:07.064Z,101464.91
2023-01-29T05:34:34.984Z,101464.22
2023-01-29T05:37:03.093Z,101466.38
2023-01-29T05:39:30.946Z,101454.50
2023-01-29T05:41:58.878Z,101458.78
2023-01-29T05:44:26.729Z,101443.88
2023-01-29T05:46:54.675Z,101442.25
2023-01-29T05:49:22.799Z,101452.91
2023-01-29T05:51:50.771Z,101453.59
2023-01-29T05:54:18.658Z,101467.38
2023-01-29T05:56:46.563Z,101468.59
2023-01-29T05:59:14.556Z,101464.00
2023-01-29T06:01:42.508Z,101458.63
2023-01-29T06:04:10.391Z,101459.59
2023-01-29T06:06:38.298Z,101457.28
2023-01-29T06:09:06.196Z,101456.69
2023-01-29T06:11:34.113Z,101475.41
2023-01-29T06:14:01.958Z,101483.22
2023-01-29T06:16:29.981Z,101483.44
2023-01-29T06:18:57.903Z,101481.19
2023-01-29T06:21:25.845Z,101481.00
2023-01-29T06:23:53.843Z,101479.94
2023-01-29T06:26:21.823Z,101483.81
2023-01-29T06:28:49.752Z,101490.63
2023-01-29T06:31:38.292Z,101500.69
2023-01-29T06:34:06.670Z,101506.09
2023-01-29T06:36:34.621Z,101518.88
2023-01-29T06:39:02.540Z,101516.16
2023-01-29T06:41:30.447Z,101517.84
2023-01-29T06:43:58.381Z,101515.31
2023-01-29T06:46:26.345Z,101532.75
2023-01-29T06:48:54.236Z,101531.88
2023-01-29T06:51:23.308Z,101529.47
2023-01-29T06:53:51.372Z,101531.63
2023-01-29T06:56:19.339Z,101533.53
2023-01-29T06:58:47.293Z,101531.75
2023-01-29T07:01:29.258Z,101534.31
2023-01-29T07:04:03.157Z,101533.72
2023-01-29T07:06:30.998Z,101523.06
2023-01-29T07:08:58.992Z,101527.72
2023-01-29T07:11:26.891Z,101524.69
2023-01-29T07:13:54.777Z,101542.84
2023-01-29T07:16:23.584Z,101547.34
2023-01-29T07:18:51.515Z,101548.91
2023-01-29T07:21:19.552Z,101554.97
2023-01-29T07:23:47.415Z,101559.00
2023-01-29T07:26:15.308Z,101554.97
2023-01-29T07:28:43.216Z,101544.28
2023-01-29T07:31:11.131Z,101555.69
2023-01-29T07:33:39.132Z,101549.25
2023-01-29T07:36:06.982Z,101555.63
2023-01-29T07:38:34.941Z,101550.38
2023-01-29T07:41:03.372Z,101547.81
2023-01-29T07:43:31.471Z,101547.72
2023-01-29T07:45:59.394Z,101538.91
2023-01-29T07:48:27.282Z,101544.63
2023-01-29T07:50:55.180Z,101531.34
2023-01-29T07:53:23.060Z,101530.16
2023-01-29T07:55:51.011Z,101523.91
2023-01-29T07:58:18.925Z,101517.94
2023-01-29T08:00:46.831Z,101514.81
2023-01-29T08:03:16.285Z,101509.13
2023-01-29T08:05:44.152Z,101496.09
2023-01-29T08:08:12.103Z,101493.41
2023-01-29T08:10:40.034Z,101502.25
2023-01-29T08:13:07.981Z,101499.63
2023-01-29T08:15:38.016Z,101498.97
2023-01-29T08:18:06.942Z,101500.41
2023-01-29T08:20:34.949Z,101491.09
2023-01-29T08:23:03.008Z,101503.78
2023-01-29T08:25:31.222Z,101514.69
2023-01-29T08:27:59.371Z,101509.06
2023-01-29T08:30:27.269Z,101498.16
2023-01-29T08:32:55.157Z,101495.34
2023-01-29T08:35:23.118Z,101502.38
2023-01-29T08:37:50.997Z,101511.19
2023-01-29T08:40:19.196Z,101506.88
2023-01-29T08:42:47.361Z,101505.69
2023-01-29T08:45:15.280Z,101503.94
2023-01-29T08:47:43.353Z,101497.59
2023-01-29T08:50:11.228Z,101506.00
2023-01-29T08:52:39.116Z,101500.09
2023-01-29T08:55:06.954Z,101511.72
2023-01-29T08:57:34.856Z,101517.63
2023-01-29T09:00:02.799Z,101511.38
2023-01-29T09:02:30.746Z,101499.59
2023-01-29T09:04:58.685Z,101493.19
2023-01-29T09:07:26.878Z,101488.13
2023-01-29T09:09:55.492Z,101476.81
2023-01-29T09:12:23.311Z,101496.63
2023-01-29T09:14:51.207Z,101496.66
2023-01-29T09:17:19.077Z,101486.25
2023-01-29T09:19:46.895Z,101490.63
2023-01-29T09:22:14.898Z,101472.53
2023-01-29T09:24:42.742Z,101467.19
2023-01-29T09:27:11.055Z,101461.34
2023-01-29T09:29:39.071Z,101457.22
2023-01-29T09:32:07.168Z,101447.25
2023-01-29T09:34:35.145Z,101455.38
2023-01-29T09:37:03.043Z,101455.44
2023-01-29T09:39:30.943Z,101458.88
2023-01-29T09:41:58.825Z,101462.59
2023-01-29T09:44:26.670Z,101465.00
2023-01-29T09:46:54.959Z,101471.50
2023-01-29T09:49:22.836Z,101475.75
2023-01-29T09:51:51.373Z,101468.66
2023-01-29T09:54:19.245Z,101463.44
2023-01-29T09:56:47.155Z,101464.38
2023-01-29T09:59:15.024Z,101458.66
2023-01-29T10:01:42.979Z,101454.09
2023-01-29T10:04:10.979Z,101452.13
2023-01-29T10:06:38.824Z,101438.09
2023-01-29T10:09:06.687Z,101440.19
2023-01-29T10:11:34.563Z,101439.69
2023-01-29T10:14:02.416Z,101440.06
2023-01-29T10:16:30.407Z,101430.34
2023-01-29T10:18:58.374Z,101428.16
2023-01-29T10:21:26.835Z,101423.19
2023-01-29T10:23:54.916Z,101427.97
2023-01-29T10:26:22.871Z,101422.50
2023-01-29T10:28:50.923Z,101421.66
2023-01-29T10:31:19.195Z,101413.28
2023-01-29T10:34:01.408Z,101420.28
2023-01-29T10:36:30.489Z,101398.09
2023-01-29T10:38:58.319Z,101397.72
2023-01-29T10:41:26.169Z,101409.00
2023-01-29T10:43:54.052Z,101399.41
2023-01-29T10:46:21.847Z,101395.50
2023-01-29T10:48:49.734Z,101390.88
2023-01-29T10:51:17.582Z,101381.66
2023-01-29T10:53:45.527Z,101388.47
2023-01-29T10:56:22.390Z,101390.13
2023-01-29T10:58:50.981Z,101390.78
2023-01-29T11:01:18.943Z,101375.78
2023-01-29T11:03:46.829Z,101376.44
2023-01-29T11:06:14.665Z,101381.53
2023-01-29T11:08:42.535Z,101361.91
2023-01-29T11:11:10.527Z,101365.13
2023-01-29T11:13:38.412Z,101362.91
2023-01-29T11:16:06.257Z,101369.56
2023-01-29T11:18:34.143Z,101355.22
2023-01-29T11:21:02.279Z,101364.75
2023-01-29T11:23:30.268Z,101341.56
2023-01-29T11:25:58.441Z,101341.91
2023-01-29T11:28:26.393Z,101325.84
2023-01-29T11:30:54.367Z,101334.22
2023-01-29T11:33:22.313Z,101330.94
2023-01-29T11:35:50.462Z,101319.38
2023-01-29T11:38:18.551Z,101314.22
2023-01-29T11:40:46.530Z,101315.41
2023-01-29T11:43:14.392Z,101312.00
2023-01-29T11:45:42.370Z,101323.06
2023-01-29T11:48:10.169Z,101321.38
2023-01-29T11:50:41.344Z,101313.53
2023-01-29T11:53:09.164Z,101313.16
2023-01-29T11:55:49.954Z,101307.72
2023-01-29T11:58:18.551Z,101300.72
2023-01-29T12:00:46.390Z,101290.09
2023-01-29T12:03:14.232Z,101274.25
2023-01-29T12:05:42.148Z,101271.53
2023-01-29T12:08:09.986Z,101277.28
2023-01-29T12:10:38.004Z,101271.81
2023-01-29T12:13:05.856Z,101279.00
2023-01-29T12:15:33.867Z,101274.41
2023-01-29T12:18:01.716Z,101279.00
2023-01-29T12:20:29.567Z,101267.75
2023-01-29T12:22:57.466Z,101260.06
2023-01-29T12:25:25.297Z,101253.25
2023-01-29T12:27:53.284Z,101241.66
2023-01-29T12:30:21.154Z,101229.03
2023-01-29T12:32:49.834Z,101230.19
2023-01-29T12:35:17.809Z,101225.41
2023-01-29T12:37:45.643Z,101223.19
2023-01-29T12:40:13.516Z,101230.34
2023-01-29T12:42:41.428Z,101233.75
2023-01-29T12:45:10.959Z,101218.03
2023-01-29T12:47:38.823Z,101228.91
2023-01-29T12:50:06.786Z,101232.38
2023-01-29T12:52:34.833Z,101249.13
2023-01-29T12:55:02.731Z,101251.56
2023-01-29T12:57:30.676Z,101244.50
2023-01-29T12:59:58.587Z,101246.72
2023-01-29T13:02:26.586Z,101233.31
2023-01-29T13:04:54.473Z,101247.59
2023-01-29T13:07:23.762Z,101240.91
2023-01-29T13:09:51.961Z,101245.53
2023-01-29T13:12:19.896Z,101233.16
2023-01-29T13:14:47.759Z,101222.91
2023-01-29T13:17:15.800Z,101211.31
2023-01-29T13:19:43.732Z,101201.63
2023-01-29T13:22:11.583Z,101188.28
2023-01-29T13:24:39.460Z,101180.06
2023-01-29T13:27:07.304Z,101170.88
2023-01-29T13:29:35.224Z,101163.31
2023-01-29T13:32:03.128Z,101167.19
2023-01-29T13:34:31.802Z,101167.81
2023-01-29T13:36:59.686Z,101162.25
2023-01-29T13:39:27.768Z,101156.72
2023-01-29T13:41:55.643Z,101172.31
2023-01-29T13:44:23.541Z,101169.97
2023-01-29T13:46:51.440Z,101159.94
2023-01-29T13:49:19.391Z,101153.13
2023-01-29T13:51:47.277Z,101157.00
2023-01-29T13:54:15.125Z,101144.00
2023-01-29T13:56:43.187Z,101138.50
2023-01-29T13:59:11.128Z,101145.94
2023-01-29T14:01:39.030Z,101148.75
2023-01-29T14:04:06.901Z,101154.84
2023-01-29T14:06:34.893Z,101161.88
2023-01-29T14:09:02.764Z,101167.78
2023-01-29T14:11:30.631Z,101167.78
2023-01-29T14:13:58.479Z,101171.19
2023-01-29T14:16:26.403Z,101182.72
2023-01-29T14:18:55.529Z,101188.66
2023-01-29T14:21:24.049Z,101182.69
2023-01-29T14:23:51.918Z,101184.22
2023-01-29T14:26:19.890Z,101185.44
2023-01-29T14:28:47.765Z,101179.28
2023-01-29T14:31:15.712Z,101175.34
2023-01-29T14:33:44.767Z,101167.91
2023-01-29T14:36:12.654Z,101173.47
2023-01-29T14:38:40.594Z,101159.47
2023-01-29T14:41:08.488Z,101157.09
2023-01-29T14:43:36.343Z,101156.31
2023-01-29T14:46:04.196Z,101165.41
2023-01-29T14:48:32.143Z,101158.84
2023-01-29T14:51:00.529Z,101158.06
2023-01-29T14:53:28.390Z,101152.38
2023-01-29T14:55:56.297Z,101150.47
2023-01-29T14:58:24.152Z,101159.28
2023-01-29T15:00:52.016Z,101151.63
2023-01-29T15:03:19.915Z,101153.56
2023-01-29T15:05:47.803Z,101152.78
2023-01-29T15:08:15.650Z,101148.25
2023-01-29T15:10:43.501Z,101141.69
2023-01-29T15:13:11.438Z,101143.47
2023-01-29T15:15:39.655Z,101140.16
2023-01-29T15:18:07.542Z,101134.38
2023-01-29T15:20:35.479Z,101138.47
2023-01-29T15:23:03.596Z,101135.16
2023-01-29T15:25:31.483Z,101134.22
2023-01-29T15:27:59.360Z,101131.84
2023-01-29T15:30:27.242Z,101128.34
2023-01-29T15:32:55.058Z,101124.22
2023-01-29T15:35:23.010Z,101112.28
2023-01-29T15:37:50.983Z,101103.19
2023-01-29T15:40:18.867Z,101109.09
2023-01-29T15:42:48.418Z,101111.38
2023-01-29T15:45:16.611Z,101114.44
2023-01-29T15:47:44.725Z,101101.78
2023-01-29T15:50:12.680Z,101102.31
2023-01-29T15:52:40.599Z,101089.94
2023-01-29T15:55:08.879Z,101095.91
2023-01-29T15:57:37.575Z,101099.88
2023-01-29T16:00:05.544Z,101097.06
2023-01-29T16:02:33.439Z,101098.13
2023-01-29T16:05:01.433Z,101097.94
2023-01-29T16:07:29.319Z,101099.13
2023-01-29T16:09:57.283Z,101094.28
2023-01-29T16:12:25.171Z,101094.25
2023-01-29T16:14:53.190Z,101078.31
2023-01-29T16:17:21.099Z,101087.72
2023-01-29T16:19:48.991Z,101083.06
2023-01-29T16:22:16.994Z,101099.34
2023-01-29T16:24:47.871Z,101092.66
2023-01-29T16:27:15.958Z,101097.03
2023-01-29T16:29:43.865Z,101092.50
2023-01-29T16:32:14.051Z,101092.84
2023-01-29T16:34:41.975Z,101101.91
2023-01-29T16:37:10.144Z,101103.47
2023-01-29T16:39:38.212Z,101103.84
2023-01-29T16:42:06.220Z,101103.25
2023-01-29T16:44:35.615Z,101096.84
2023-01-29T16:47:03.610Z,101095.28
2023-01-29T16:49:31.725Z,101102.66
2023-01-29T16:51:59.938Z,101100.31
2023-01-29T16:54:27.984Z,101101.13
2023-01-29T16:56:55.954Z,101092.47
2023-01-29T16:59:26.953Z,101091.94
2023-01-29T17:01:54.952Z,101093.25
2023-01-29T17:04:22.980Z,101095.38
2023-01-29T17:06:51.053Z,101090.34
2023-01-29T17:09:18.935Z,101092.09
2023-01-29T17:11:46.951Z,101084.59
2023-01-29T17:14:14.820Z,101089.09
2023-01-29T17:16:42.740Z,101082.84
2023-01-29T17:19:10.836Z,101088.59
2023-01-29T17:21:39.020Z,101078.75
2023-01-29T17:24:07.233Z,101082.28
2023-01-29T17:26:35.171Z,101086.09
2023-01-29T17:29:03.151Z,101079.63
2023-01-29T17:31:31.274Z,101069.28
2023-01-29T17:33:59.325Z,101076.44
2023-01-29T17:36:27.322Z,101073.34
2023-01-29T17:38:55.186Z,101075.00
2023-01-29T17:41:23.312Z,101062.91
2023-01-29T17:43:51.975Z,101061.97
2023-01-29T17:46:20.060Z,101059.44
2023-01-29T17:48:49.252Z,101051.88
2023-01-29T17:51:17.337Z,101054.41
2023-01-29T17:53:46.597Z,101056.69
2023-01-29T17:56:15.204Z,101055.00
2023-01-29T17:58:43.271Z,101043.19
2023-01-29T18:01:11.129Z,101040.59
2023-01-29T18:03:39.194Z,101036.00
2023-01-29T18:06:07.162Z,101030.09
2023-01-29T18:08:35.394Z,101022.25
2023-01-29T18:11:03.515Z,101015.59
2023-01-29T18:13:31.482Z,100996.41
2023-01-29T18:15:59.428Z,101009.25
2023-01-29T18:18:27.436Z,100998.97
2023-01-29T18:20:55.370Z,100997.94
2023-01-29T18:23:23.459Z,100997.03
2023-01-29T18:25:52.873Z,100997.66
2023-01-29T18:28:20.786Z,100991.59
2023-01-29T18:30:48.654Z,100995.16
2023-01-29T18:33:16.955Z,100983.00
2023-01-29T18:35:44.921Z,100984.66
2023-01-29T18:38:13.188Z,100964.56
2023-01-29T18:40:41.216Z,100972.53
2023-01-29T18:43:09.115Z,100973.13
2023-01-29T18:45:37.169Z,100968.91
2023-01-29T18:48:05.182Z,100968.47
2023-01-29T18:50:33.049Z,100956.59
2023-01-29T18:53:01.029Z,100942.91
2023-01-29T18:55:29.079Z,100941.50
2023-01-29T18:58:26.559Z,100935.97
2023-01-29T19:00:46.126Z,100934.59
2023-01-29T19:03:14.454Z,100924.69
2023-01-29T19:05:42.466Z,100928.72
2023-01-29T19:08:10.394Z,100924.22
2023-01-29T19:10:38.389Z,100925.94
2023-01-29T19:13:06.737Z,100916.03
2023-01-29T19:15:35.167Z,100913.59
2023-01-29T19:18:04.345Z,100917.81
2023-01-29T19:20:32.316Z,100927.03
2023-01-29T19:23:00.313Z,100922.53
2023-01-29T19:25:28.321Z,100914.31
2023-01-29T19:27:56.395Z,100912.53
2023-01-29T19:30:24.433Z,100916.97
2023-01-29T19:32:52.330Z,100919.72
2023-01-29T19:35:20.410Z,100919.53
2023-01-29T19:37:48.432Z,100919.50
2023-01-29T19:40:16.408Z,100910.78
2023-01-29T19:42:44.393Z,100910.69
2023-01-29T19:45:12.394Z,100909.72
2023-01-29T19:47:40.617Z,100906.97
2023-01-29T19:50:08.688Z,100906.09
2023-01-29T19:52:52.138Z,100905.88
2023-01-29T19:55:20.450Z,100901.34
2023-01-29T19:57:48.663Z,100898.69
2023-01-29T20:00:17.619Z,100893.69
2023-01-29T20:02:45.727Z,100895.50
2023-01-29T20:05:13.764Z,100885.66
2023-01-29T20:07:42.683Z,100886.19
2023-01-29T20:10:11.797Z,100882.44
2023-01-29T20:12:39.717Z,100897.84
2023-01-29T20:15:07.921Z,100890.94
2023-01-29T20:17:35.847Z,100879.41
2023-01-29T20:20:04.248Z,100885.06
2023-01-29T20:22:32.278Z,100890.41
2023-01-29T20:25:00.193Z,100866.47
2023-01-29T20:27:28.408Z,100869.97
2023-01-29T20:29:56.326Z,100883.19
2023-01-29T20:32:24.218Z,100874.91
2023-01-29T20:34:53.401Z,100874.56
2023-01-29T20:37:21.527Z,100862.47
2023-01-29T20:39:49.457Z,100864.44
2023-01-29T20:42:17.410Z,100859.72
2023-01-29T20:44:45.488Z,100857.09
2023-01-29T20:47:14.431Z,100862.44
2023-01-29T20:49:42.365Z,100852.28
2023-01-29T20:52:10.861Z,100837.19
2023-01-29T20:54:38.724Z,100837.75
2023-01-29T20:57:06.948Z,100846.06
2023-01-29T20:59:34.831Z,100844.25
2023-01-29T21:02:02.806Z,100837.66
2023-01-29T21:04:31.780Z,100831.38
2023-01-29T21:06:59.768Z,100822.88
2023-01-29T21:09:27.974Z,100825.53
2023-01-29T21:11:56.090Z,100822.50
2023-01-29T21:14:24.025Z,100807.88
2023-01-29T21:16:51.999Z,100813.03
2023-01-29T21:19:20.057Z,100801.16
2023-01-29T21:21:47.991Z,100806.13
2023-01-29T21:24:18.785Z,100794.06
2023-01-29T21:26:46.759Z,100787.66
2023-01-29T21:29:14.706Z,100775.38
2023-01-29T21:31:42.585Z,100770.28
2023-01-29T21:34:10.516Z,100768.47
2023-01-29T21:36:38.435Z,100755.41
2023-01-29T21:39:16.695Z,100747.91
2023-01-29T21:42:01.842Z,100737.53
2023-01-29T21:44:29.668Z,100722.38
2023-01-29T21:46:57.584Z,100721.22
2023-01-29T21:49:25.517Z,100724.31
2023-01-29T21:51:56.236Z,100716.69
2023-01-29T21:54:24.181Z,100709.91
2023-01-29T21:56:54.367Z,100711.97
2023-01-29T21:59:22.127Z,100705.16
2023-01-29T22:01:50.174Z,100703.66
2023-01-29T22:04:17.985Z,100712.19
2023-01-29T22:06:45.724Z,100705.06
2023-01-29T22:09:13.839Z,100693.84
2023-01-29T22:11:41.892Z,100688.56
2023-01-29T22:14:09.665Z,100690.97
2023-01-29T22:16:37.496Z,100684.88
2023-01-29T22:19:05.301Z,100677.25
2023-01-29T22:21:35.659Z,100679.13
2023-01-29T22:24:03.685Z,100679.47
2023-01-29T22:26:32.217Z,100674.56
2023-01-29T22:29:00.004Z,100670.34
2023-01-29T22:31:27.824Z,100666.25
2023-01-29T22:33:55.584Z,100661.19
2023-01-29T22:36:23.389Z,100656.09
2023-01-29T22:38:51.131Z,100661.91
2023-01-29T22:41:18.918Z,100643.16
2023-01-29T22:43:46.802Z,100640.44
2023-01-29T22:46:14.646Z,100631.91
2023-01-29T22:48:42.498Z,100628.56
2023-01-29T22:51:13.912Z,100626.00
2023-01-29T22:53:41.706Z,100627.88
2023-01-29T22:56:09.439Z,100618.00
2023-01-29T22:58:37.200Z,100614.41
2023-01-29T23:01:04.951Z,100614.63
2023-01-29T23:03:32.739Z,100609.34
2023-01-29T23:06:00.511Z,100608.28
2023-01-29T23:08:28.258Z,100616.66
2023-01-29T23:11:13.922Z,100606.97
2023-01-29T23:13:42.102Z,100589.13
2023-01-29T23:16:09.990Z,100582.00
2023-01-29T23:18:37.797Z,100574.81
2023-01-29T23:21:05.613Z,100563.09
2023-01-29T23:23:33.393Z,100564.97
2023-01-29T23:26:18.509Z,100564.97
2023-01-29T23:28:46.295Z,100549.00
2023-01-29T23:31:14.024Z,100559.03
2023-01-29T23:33:41.733Z,100553.94
2023-01-29T23:36:09.471Z,100534.88
2023-01-29T23:38:37.407Z,100512.25
2023-01-29T23:41:05.210Z,100507.84
2023-01-29T23:43:32.950Z,100498.16
2023-01-29T23:46:00.706Z,100498.16
2023-01-29T23:48:28.442Z,100499.00
2023-01-29T23:50:56.202Z,100500.69
2023-01-29T23:53:24.026Z,100500.69
2023-01-29T23:55:51.735Z,100491.84
2023-01-29T23:58:19.454Z,100481.81
